Time;durP1;ratioP1;P1;durP2;ratioP2;P2;SDS_P1;SDS_P2;PMS_P1;PMS_P2;Temp;Humidity;BMP_temperature;BMP_pressure;BME280_temperature;BME280_humidity;BME280_pressure;Samples;Min_cycle;Max_cycle;Signal;HPM_P1;HPM_P2
2022/08/24 00:01:36;;;;;;;4.60;2.50;;;28.00;62.30;;;;;;4903228;29;20463;-77
2022/08/24 00:04:03;;;;;;;5.53;2.60;;;28.00;62.30;;;;;;4919469;29;20490;-76
2022/08/24 00:06:33;;;;;;;3.63;2.40;;;28.00;62.30;;;;;;4907903;29;20421;-77
2022/08/24 00:09:02;;;;;;;3.03;2.73;;;28.00;62.30;;;;;;4910717;29;20428;-77
2022/08/24 00:11:39;;;;;;;4.57;2.33;;;28.00;62.40;;;;;;4923963;29;20420;-76
2022/08/24 00:14:07;;;;;;;2.97;2.77;;;28.00;62.40;;;;;;4934733;29;20458;-77
2022/08/24 00:16:34;;;;;;;3.27;2.63;;;28.00;62.40;;;;;;4935007;29;20897;-76
2022/08/24 00:19:00;;;;;;;4.30;2.60;;;27.90;62.30;;;;;;4909521;29;20441;-76
2022/08/24 00:21:26;;;;;;;2.60;2.40;;;27.90;62.40;;;;;;4900413;29;20426;-76
2022/08/24 00:23:53;;;;;;;2.70;2.47;;;27.90;62.40;;;;;;4909086;29;20451;-76
2022/08/24 00:26:19;;;;;;;5.50;2.40;;;27.90;62.50;;;;;;4934283;29;20470;-77
2022/08/24 00:28:47;;;;;;;2.77;2.47;;;27.90;62.50;;;;;;4935599;29;20523;-77
2022/08/24 00:31:14;;;;;;;4.60;2.80;;;27.90;62.50;;;;;;4919092;29;20817;-75
2022/08/24 00:33:40;;;;;;;3.30;3.00;;;27.90;62.60;;;;;;4918871;29;20507;-76
2022/08/24 00:36:07;;;;;;;3.53;2.97;;;27.80;62.50;;;;;;4933189;29;20574;-76
2022/08/24 00:38:38;;;;;;;3.37;3.07;;;27.80;62.50;;;;;;4934521;29;20436;-78
2022/08/24 00:41:04;;;;;;;3.80;2.57;;;27.80;62.50;;;;;;4918925;29;20457;-77
2022/08/24 00:43:34;;;;;;;3.17;2.80;;;27.80;62.60;;;;;;4934317;29;20949;-77
2022/08/24 00:46:18;;;;;;;3.40;2.63;;;27.80;62.60;;;;;;4934256;29;20490;-75
2022/08/24 00:48:49;;;;;;;3.07;2.70;;;27.80;62.60;;;;;;4934671;29;20751;-76
2022/08/24 00:51:24;;;;;;;4.60;2.53;;;27.70;62.60;;;;;;4934484;29;20797;-77
2022/08/24 00:54:01;;;;;;;2.73;2.53;;;27.70;62.60;;;;;;4918350;29;20455;-75
2022/08/24 00:56:33;;;;;;;3.03;2.63;;;27.70;62.60;;;;;;4918658;29;20977;-76
2022/08/24 00:59:13;;;;;;;4.23;2.70;;;27.70;62.60;;;;;;4934572;29;20428;-76
2022/08/24 01:01:43;;;;;;;2.60;2.40;;;27.70;62.60;;;;;;4924778;29;20512;-75
2022/08/24 01:04:27;;;;;;;3.00;2.80;;;27.70;62.80;;;;;;4934327;29;21013;-76
2022/08/24 01:06:55;;;;;;;3.50;2.77;;;27.60;62.60;;;;;;4923064;29;20416;-76
2022/08/24 01:09:24;;;;;;;3.67;3.00;;;27.60;62.70;;;;;;4930656;29;20429;-75
2022/08/24 01:11:53;;;;;;;3.23;2.57;;;27.60;62.70;;;;;;4913864;29;20435;-76
2022/08/24 01:14:20;;;;;;;3.87;3.13;;;27.60;62.70;;;;;;4934258;29;20438;-77
2022/08/24 01:19:42;;;;;;;6.07;2.80;;;27.50;62.60;;;;;;4934477;29;20490;-76
2022/08/24 01:22:28;;;;;;;3.70;2.70;;;27.50;62.60;;;;;;4934200;29;20432;-75
2022/08/24 01:24:55;;;;;;;6.50;2.77;;;27.50;62.70;;;;;;4935416;29;20970;-77
2022/08/24 01:27:21;;;;;;;3.80;3.03;;;27.50;62.80;;;;;;4933142;29;20836;-76
2022/08/24 01:29:49;;;;;;;2.97;2.67;;;27.50;62.80;;;;;;4935285;29;20468;-77
2022/08/24 01:32:19;;;;;;;4.30;3.27;;;27.50;62.80;;;;;;4918368;29;20440;-77
2022/08/24 01:34:45;;;;;;;4.20;2.70;;;27.40;62.80;;;;;;4918315;29;20515;-77
2022/08/24 01:37:11;;;;;;;4.57;2.40;;;27.40;62.80;;;;;;4919139;29;20810;-77
2022/08/24 01:39:48;;;;;;;3.47;2.90;;;27.40;62.90;;;;;;4922341;29;20424;-76
2022/08/24 01:42:18;;;;;;;3.67;2.87;;;27.40;62.90;;;;;;4938632;29;20976;-76
2022/08/24 01:44:45;;;;;;;3.00;2.43;;;27.40;62.90;;;;;;4921959;29;20479;-76
2022/08/24 01:47:14;;;;;;;2.90;2.50;;;27.40;62.90;;;;;;4937816;29;20404;-75
2022/08/24 01:49:46;;;;;;;2.70;2.50;;;27.40;63.00;;;;;;4937382;29;20437;-76
2022/08/24 01:52:17;;;;;;;2.80;2.60;;;27.40;63.80;;;;;;4921904;29;20478;-75
2022/08/24 01:54:46;;;;;;;3.13;2.80;;;27.30;63.00;;;;;;4938925;29;20526;-76
2022/08/24 01:57:15;;;;;;;3.30;2.50;;;27.30;63.00;;;;;;4937614;29;20423;-77
2022/08/24 01:59:42;;;;;;;3.07;2.77;;;27.30;63.00;;;;;;4926686;29;20423;-76
2022/08/24 02:02:36;;;;;;;4.13;3.23;;;27.30;63.00;;;;;;4918194;29;20460;-72
2022/08/24 02:05:03;;;;;;;2.73;2.27;;;27.30;63.10;;;;;;4934160;29;20471;-72
2022/08/24 02:07:31;;;;;;;4.07;3.07;;;27.30;63.10;;;;;;4920985;29;20424;-72
2022/08/24 02:10:00;;;;;;;2.63;2.43;;;27.20;63.00;;;;;;4933092;29;20448;-72
2022/08/24 02:12:26;;;;;;;6.00;2.57;;;27.20;63.10;;;;;;4918703;29;20444;-72
2022/08/24 02:14:53;;;;;;;2.83;2.63;;;27.20;63.10;;;;;;4935846;29;20436;-72
2022/08/24 02:17:19;;;;;;;3.20;2.90;;;27.20;63.10;;;;;;4936169;29;20564;-72
2022/08/24 02:19:46;;;;;;;3.33;3.03;;;27.20;63.10;;;;;;4935837;29;20513;-72
2022/08/24 02:22:17;;;;;;;2.57;2.37;;;27.20;63.20;;;;;;4935966;29;20419;-72
2022/08/24 02:24:46;;;;;;;3.77;2.33;;;27.20;63.30;;;;;;4936250;29;20567;-72
2022/08/24 02:27:15;;;;;;;3.27;2.97;;;27.10;63.20;;;;;;4919890;29;20530;-72
2022/08/24 02:29:44;;;;;;;2.50;2.30;;;27.10;63.20;;;;;;4920118;29;20413;-72
2022/08/24 02:32:13;;;;;;;3.47;3.17;;;27.10;63.20;;;;;;4935577;29;20428;-72
2022/08/24 02:34:39;;;;;;;2.90;2.70;;;27.10;63.20;;;;;;4937197;29;20416;-72
2022/08/24 02:37:05;;;;;;;3.00;2.80;;;27.10;63.20;;;;;;4935724;29;20513;-72
2022/08/24 02:39:35;;;;;;;3.10;2.70;;;27.00;63.20;;;;;;4919763;29;20463;-72
2022/08/24 02:42:04;;;;;;;3.00;2.73;;;27.00;63.20;;;;;;4935743;29;20554;-72
2022/08/24 02:44:30;;;;;;;2.67;2.40;;;27.00;63.30;;;;;;4936490;29;20492;-72
2022/08/24 02:46:56;;;;;;;5.27;3.10;;;27.00;63.30;;;;;;4935500;29;20427;-72
2022/08/24 02:49:22;;;;;;;3.60;3.00;;;27.00;63.30;;;;;;4919723;29;20432;-72
2022/08/24 02:51:50;;;;;;;2.60;2.40;;;27.00;63.40;;;;;;4920375;29;20447;-72
2022/08/24 02:54:19;;;;;;;2.50;2.30;;;27.00;63.40;;;;;;4919517;29;21037;-72
2022/08/24 02:56:51;;;;;;;4.40;2.50;;;26.90;63.40;;;;;;4935721;29;20407;-72
2022/08/24 02:59:17;;;;;;;3.10;2.40;;;26.90;63.40;;;;;;4931804;29;20507;-72
2022/08/24 03:01:48;;;;;;;6.80;3.10;;;26.90;63.40;;;;;;4917040;29;20420;-72
2022/08/24 03:04:20;;;;;;;2.90;2.60;;;26.90;63.40;;;;;;4934442;29;20462;-72
2022/08/24 03:06:51;;;;;;;3.30;2.60;;;26.90;63.40;;;;;;4918679;29;20423;-72
2022/08/24 03:09:18;;;;;;;3.77;2.40;;;26.90;63.50;;;;;;4934909;29;20442;-72
2022/08/24 03:11:44;;;;;;;2.40;2.20;;;26.90;63.50;;;;;;4919330;29;20459;-71
2022/08/24 03:14:17;;;;;;;2.93;2.43;;;26.80;63.40;;;;;;4919525;29;20491;-72
2022/08/24 03:16:45;;;;;;;3.80;2.70;;;26.80;63.40;;;;;;4919302;29;20908;-72
2022/08/24 03:19:14;;;;;;;3.47;2.80;;;26.80;63.50;;;;;;4936204;29;20456;-72
2022/08/24 03:21:46;;;;;;;3.10;2.60;;;26.80;63.50;;;;;;4934588;29;21007;-72
2022/08/24 03:24:14;;;;;;;3.10;2.80;;;26.80;63.60;;;;;;4935686;29;20448;-72
2022/08/24 03:26:45;;;;;;;3.57;3.27;;;26.70;63.50;;;;;;4934847;29;20451;-72
2022/08/24 03:29:13;;;;;;;3.00;2.70;;;26.70;63.50;;;;;;4922692;29;20467;-72
2022/08/24 03:31:41;;;;;;;2.83;2.23;;;26.70;63.50;;;;;;4935072;29;20467;-72
2022/08/24 03:34:13;;;;;;;2.93;2.70;;;26.70;63.60;;;;;;4919127;29;20452;-72
2022/08/24 03:36:46;;;;;;;3.27;3.00;;;26.70;63.60;;;;;;4935041;29;20436;-72
2022/08/24 03:39:15;;;;;;;2.73;2.53;;;26.70;63.70;;;;;;4918620;29;20973;-72
2022/08/24 03:41:41;;;;;;;3.00;2.80;;;26.60;63.60;;;;;;4934383;29;20440;-72
2022/08/24 03:44:08;;;;;;;4.07;2.50;;;26.60;63.60;;;;;;4918522;29;20451;-72
2022/08/24 03:46:39;;;;;;;3.10;2.70;;;26.60;63.70;;;;;;4934606;29;20409;-71
2022/08/24 03:49:08;;;;;;;3.07;2.57;;;26.60;63.60;;;;;;4918322;29;20950;-72
2022/08/24 03:51:37;;;;;;;2.70;2.30;;;26.60;63.70;;;;;;4917795;29;20439;-72
2022/08/24 03:54:06;;;;;;;3.40;2.70;;;26.60;63.80;;;;;;4934281;29;20458;-72
2022/08/24 03:56:32;;;;;;;3.17;2.60;;;26.60;63.80;;;;;;4902734;29;20451;-72
2022/08/24 03:59:02;;;;;;;4.00;2.93;;;26.60;63.80;;;;;;4918690;29;20910;-72
2022/08/24 04:01:35;;;;;;;2.70;2.50;;;26.50;63.80;;;;;;4933512;29;20408;-72
2022/08/24 04:04:04;;;;;;;3.20;2.90;;;26.50;63.80;;;;;;4934457;29;21086;-72
2022/08/24 04:06:34;;;;;;;5.43;3.20;;;26.50;63.80;;;;;;4902539;29;20447;-72
2022/08/24 04:09:10;;;;;;;3.00;2.73;;;26.50;63.80;;;;;;4934493;29;20463;-72
2022/08/24 04:11:42;;;;;;;3.07;2.60;;;26.50;63.90;;;;;;4933595;29;20436;-72
2022/08/24 04:14:09;;;;;;;3.13;2.83;;;26.40;63.80;;;;;;4918708;29;20475;-72
2022/08/24 04:16:40;;;;;;;2.93;2.63;;;26.40;63.80;;;;;;4933280;29;20438;-72
2022/08/24 04:19:17;;;;;;;3.27;2.97;;;26.40;63.90;;;;;;4934227;29;20824;-72
2022/08/24 04:21:43;;;;;;;2.60;2.40;;;26.40;63.90;;;;;;4917846;29;20464;-72
2022/08/24 04:24:11;;;;;;;3.00;2.73;;;26.40;63.90;;;;;;4935244;29;20953;-72
2022/08/24 04:26:40;;;;;;;2.90;2.70;;;26.40;64.00;;;;;;4917453;29;20850;-72
2022/08/24 04:29:11;;;;;;;4.90;3.10;;;26.30;63.80;;;;;;4918022;29;20492;-72
2022/08/24 04:31:52;;;;;;;3.53;3.00;;;26.30;63.90;;;;;;4907398;29;20448;-72
2022/08/24 04:34:21;;;;;;;3.30;3.00;;;26.30;64.00;;;;;;4933932;29;20435;-71
2022/08/24 04:36:48;;;;;;;4.87;2.70;;;26.30;63.90;;;;;;4933063;29;20436;-72
2022/08/24 04:39:14;;;;;;;6.30;3.10;;;26.30;64.00;;;;;;4925539;29;20457;-72
2022/08/24 04:42:02;;;;;;;3.80;2.70;;;26.30;64.00;;;;;;4932976;29;20442;-72
2022/08/24 04:44:31;;;;;;;3.37;2.83;;;26.30;64.10;;;;;;4934068;29;20508;-72
2022/08/24 04:47:00;;;;;;;4.10;3.23;;;26.30;64.10;;;;;;4912574;29;20456;-72
2022/08/24 04:49:52;;;;;;;3.50;2.70;;;26.20;64.00;;;;;;4946991;29;20439;-72
2022/08/24 04:52:18;;;;;;;3.47;2.63;;;26.20;64.00;;;;;;4937316;29;20506;-72
2022/08/24 04:54:47;;;;;;;3.53;2.90;;;26.20;64.10;;;;;;4937168;29;20424;-72
2022/08/24 04:57:20;;;;;;;4.83;3.10;;;26.20;64.90;;;;;;4939640;29;20444;-71
2022/08/24 04:59:48;;;;;;;2.90;2.70;;;26.20;64.10;;;;;;4933311;29;20534;-72
2022/08/24 05:02:17;;;;;;;3.43;2.50;;;26.20;64.10;;;;;;4934538;29;20439;-71
2022/08/24 05:04:48;;;;;;;5.33;2.70;;;26.10;64.10;;;;;;4917928;29;20446;-72
2022/08/24 05:07:14;;;;;;;3.47;3.17;;;26.10;64.10;;;;;;4913950;29;21057;-72
2022/08/24 05:09:44;;;;;;;3.13;2.83;;;26.10;64.20;;;;;;4914783;29;20990;-72
2022/08/24 05:12:14;;;;;;;5.67;3.20;;;26.10;64.20;;;;;;4932209;29;20439;-71
2022/08/24 05:14:51;;;;;;;3.43;3.13;;;26.10;64.20;;;;;;4938513;29;20569;-72
2022/08/24 05:17:17;;;;;;;3.00;2.80;;;26.10;64.20;;;;;;4937080;29;20478;-72
2022/08/24 05:19:46;;;;;;;4.70;2.80;;;26.10;64.20;;;;;;4921640;29;20968;-72
2022/08/24 05:22:12;;;;;;;3.50;3.20;;;26.10;64.20;;;;;;4927252;29;20451;-72
2022/08/24 05:24:45;;;;;;;3.17;2.73;;;26.00;64.20;;;;;;4902813;29;20456;-72
2022/08/24 05:27:12;;;;;;;4.90;2.70;;;26.00;64.20;;;;;;4916547;29;20518;-72
2022/08/24 05:29:40;;;;;;;4.43;2.80;;;26.00;64.30;;;;;;4920588;29;20450;-72
2022/08/24 05:32:11;;;;;;;3.20;3.00;;;26.00;64.30;;;;;;4911624;29;20448;-72
2022/08/24 05:34:43;;;;;;;3.10;2.80;;;26.00;64.30;;;;;;4918393;29;20448;-71
2022/08/24 05:37:09;;;;;;;4.57;3.13;;;26.00;64.30;;;;;;4931082;29;20997;-71
2022/08/24 05:39:49;;;;;;;4.63;3.10;;;26.00;64.40;;;;;;4936510;29;20443;-72
2022/08/24 05:42:15;;;;;;;3.33;2.90;;;26.00;64.40;;;;;;4936523;29;20447;-72
2022/08/24 05:44:46;;;;;;;4.23;3.00;;;25.90;64.40;;;;;;4935805;29;20475;-72
2022/08/24 05:47:16;;;;;;;4.30;3.60;;;25.90;64.50;;;;;;4921174;29;20552;-71
2022/08/24 05:49:46;;;;;;;3.20;2.80;;;25.90;64.50;;;;;;4919376;29;20466;-72
2022/08/24 05:52:12;;;;;;;4.30;3.30;;;25.90;64.50;;;;;;4921235;29;20464;-72
2022/08/24 05:54:44;;;;;;;3.40;3.10;;;25.90;64.60;;;;;;4917667;29;20458;-72
2022/08/24 05:57:14;;;;;;;3.10;2.90;;;25.90;64.60;;;;;;4917894;29;20416;-72
2022/08/24 05:59:56;;;;;;;3.37;3.00;;;25.90;64.70;;;;;;4914807;29;20502;-71
2022/08/24 06:02:24;;;;;;;4.43;3.20;;;25.90;64.70;;;;;;4936790;29;20446;-71
2022/08/24 06:04:55;;;;;;;4.33;3.20;;;25.90;64.80;;;;;;4936285;29;20470;-71
2022/08/24 06:07:21;;;;;;;3.20;2.90;;;25.80;64.80;;;;;;4936439;29;20548;-71
2022/08/24 06:09:53;;;;;;;3.40;3.10;;;25.80;64.80;;;;;;4920267;29;21008;-71
2022/08/24 06:12:22;;;;;;;5.33;3.20;;;25.80;64.90;;;;;;4936386;29;20560;-73
2022/08/24 06:14:48;;;;;;;3.40;2.87;;;25.80;64.90;;;;;;4919678;29;20471;-72
2022/08/24 06:17:19;;;;;;;3.50;3.20;;;25.80;64.90;;;;;;4936708;29;20910;-72
2022/08/24 06:19:45;;;;;;;4.20;3.10;;;25.80;65.00;;;;;;4935050;29;20542;-73
2022/08/24 06:22:11;;;;;;;3.27;2.83;;;25.80;65.00;;;;;;4936032;29;20941;-73
2022/08/24 06:27:24;;;;;;;3.73;3.33;;;25.80;65.10;;;;;;4936942;29;20458;-73
2022/08/24 06:29:58;;;;;;;3.50;3.20;;;25.80;65.10;;;;;;4920001;29;20784;-73
2022/08/24 06:32:50;;;;;;;3.20;3.00;;;25.70;65.20;;;;;;4936011;29;20594;-73
2022/08/24 06:35:39;;;;;;;3.23;2.90;;;25.70;65.30;;;;;;4932452;29;20495;-76
2022/08/24 06:38:07;;;;;;;3.60;3.30;;;25.80;65.40;;;;;;4934342;29;20459;-74
2022/08/24 06:40:33;;;;;;;5.03;3.73;;;25.80;65.50;;;;;;4933348;29;20554;-73
2022/08/24 06:43:02;;;;;;;3.33;2.83;;;25.70;65.40;;;;;;4917885;29;20479;-73
2022/08/24 06:45:41;;;;;;;4.23;3.13;;;25.70;65.40;;;;;;4918189;29;20483;-73
2022/08/24 06:48:10;;;;;;;4.80;3.27;;;25.70;65.30;;;;;;4917099;29;20443;-73
2022/08/24 06:50:41;;;;;;;5.03;3.20;;;25.70;65.50;;;;;;4916563;29;20812;-73
2022/08/24 06:53:08;;;;;;;3.50;3.10;;;25.70;65.50;;;;;;4917434;29;20506;-73
2022/08/24 06:55:43;;;;;;;3.30;3.00;;;25.70;65.50;;;;;;4917802;29;20891;-73
2022/08/24 06:58:10;;;;;;;3.60;3.30;;;25.70;65.50;;;;;;4932742;29;21019;-73
2022/08/24 07:01:15;;;;;;;3.40;2.97;;;25.70;66.40;;;;;;4917364;29;20965;-73
2022/08/24 07:03:43;;;;;;;3.70;2.90;;;25.70;65.70;;;;;;4917791;29;20465;-73
2022/08/24 07:06:42;;;;;;;3.93;3.53;;;25.70;65.60;;;;;;4916687;29;20547;-73
2022/08/24 07:09:12;;;;;;;3.13;2.83;;;25.70;65.50;;;;;;4932388;29;20471;-74
2022/08/24 07:11:41;;;;;;;3.63;3.33;;;25.70;65.50;;;;;;4917008;29;20461;-73
2022/08/24 07:14:11;;;;;;;6.17;3.50;;;25.70;65.40;;;;;;4929253;29;20543;-73
2022/08/24 07:16:37;;;;;;;3.70;3.10;;;25.70;65.30;;;;;;4898500;29;20469;-74
2022/08/24 07:19:04;;;;;;;4.53;2.83;;;25.70;65.20;;;;;;4916513;29;20462;-74
2022/08/24 07:21:34;;;;;;;4.20;3.80;;;25.80;65.00;;;;;;4900840;29;20550;-73
2022/08/24 07:24:05;;;;;;;5.67;3.50;;;25.80;65.00;;;;;;4929665;29;20465;-73
2022/08/24 07:26:34;;;;;;;3.87;3.50;;;25.80;65.00;;;;;;4893208;29;20519;-74
2022/08/24 07:29:09;;;;;;;4.87;3.07;;;25.80;64.90;;;;;;4931429;29;21128;-74
2022/08/24 07:31:44;;;;;;;2.93;2.70;;;25.80;64.90;;;;;;4925975;29;20486;-73
2022/08/24 07:34:19;;;;;;;4.50;3.20;;;25.80;64.70;;;;;;4914484;29;20506;-73
2022/08/24 07:36:49;;;;;;;4.30;3.90;;;25.80;64.70;;;;;;4932213;29;20405;-73
2022/08/24 07:39:15;;;;;;;4.20;3.60;;;25.80;64.60;;;;;;4932838;29;20450;-74
2022/08/24 07:41:43;;;;;;;3.63;3.33;;;25.80;64.50;;;;;;4933334;29;20486;-74
2022/08/24 07:44:11;;;;;;;3.50;3.20;;;25.80;64.40;;;;;;4931015;29;20489;-72
2022/08/24 07:46:39;;;;;;;3.63;3.33;;;25.80;64.40;;;;;;4934630;29;20459;-74
2022/08/24 07:49:09;;;;;;;5.50;3.43;;;25.80;64.30;;;;;;4914255;29;20440;-72
2022/08/24 07:51:37;;;;;;;3.87;3.47;;;25.80;64.20;;;;;;4930726;29;20535;-75
2022/08/24 07:54:07;;;;;;;4.17;3.23;;;25.80;64.20;;;;;;4927117;29;20463;-74
2022/08/24 07:56:42;;;;;;;4.37;3.73;;;25.80;64.20;;;;;;4909565;29;20456;-74
2022/08/24 07:59:11;;;;;;;3.80;3.50;;;25.80;64.10;;;;;;4931278;29;21002;-74
2022/08/24 08:01:42;;;;;;;3.80;3.40;;;25.80;64.00;;;;;;4934758;29;20454;-74
2022/08/24 08:04:10;;;;;;;3.70;3.40;;;25.80;64.00;;;;;;4919098;29;20454;-74
2022/08/24 08:06:41;;;;;;;4.20;3.50;;;25.80;63.90;;;;;;4918745;29;20463;-74
2022/08/24 08:09:07;;;;;;;4.03;3.73;;;25.80;63.90;;;;;;4934194;29;20436;-74
2022/08/24 08:11:36;;;;;;;4.13;3.23;;;25.90;64.00;;;;;;4934377;29;20442;-74
2022/08/24 08:14:02;;;;;;;4.10;3.70;;;25.90;63.90;;;;;;4918766;29;20450;-74
2022/08/24 08:16:28;;;;;;;4.20;3.30;;;25.90;63.80;;;;;;4919051;29;20422;-73
2022/08/24 08:18:59;;;;;;;5.00;3.87;;;25.90;63.80;;;;;;4918633;29;20482;-74
2022/08/24 08:24:16;;;;;;;4.17;3.60;;;25.90;63.70;;;;;;4918189;29;20464;-71
2022/08/24 08:26:51;;;;;;;3.90;3.50;;;25.90;63.50;;;;;;4933885;29;20443;-74
2022/08/24 08:29:27;;;;;;;4.23;3.93;;;25.90;63.50;;;;;;4918865;29;20442;-74
2022/08/24 08:31:55;;;;;;;4.93;4.40;;;25.90;63.40;;;;;;4933296;29;20459;-74
2022/08/24 08:34:22;;;;;;;3.83;3.47;;;25.90;63.30;;;;;;4918054;29;20444;-73
2022/08/24 08:36:49;;;;;;;4.43;4.03;;;25.90;63.10;;;;;;4900947;29;20466;-73
2022/08/24 08:39:19;;;;;;;4.50;4.10;;;25.90;63.10;;;;;;4917255;29;20452;-74
2022/08/24 08:42:00;;;;;;;4.37;3.97;;;25.90;62.90;;;;;;4916707;29;20917;-74
2022/08/24 08:44:44;;;;;;;3.90;3.60;;;25.90;63.70;;;;;;4932711;29;20491;-74
2022/08/24 08:47:13;;;;;;;3.90;3.60;;;26.00;63.10;;;;;;4933682;29;20911;-74
2022/08/24 08:50:17;;;;;;;4.13;3.73;;;26.00;63.20;;;;;;4901732;29;20970;-74
2022/08/24 08:53:03;;;;;;;3.90;3.60;;;26.00;63.10;;;;;;4931042;29;20566;-74
2022/08/24 08:55:30;;;;;;;3.87;3.57;;;26.00;63.10;;;;;;4918127;29;20443;-74
2022/08/24 08:58:28;;;;;;;4.60;4.30;;;26.10;63.10;;;;;;4913994;29;20508;-76
2022/08/24 09:01:16;;;;;;;5.03;4.47;;;26.10;63.10;;;;;;4919811;29;20525;-74
2022/08/24 09:04:06;;;;;;;4.50;4.10;;;26.10;63.00;;;;;;4932848;29;20466;-76
2022/08/24 09:07:03;;;;;;;4.47;4.10;;;26.10;62.90;;;;;;4917600;29;20485;-74
2022/08/24 09:10:07;;;;;;;4.40;4.00;;;26.20;63.00;;;;;;4916689;29;20530;-74
2022/08/24 09:12:59;;;;;;;5.17;4.00;;;26.20;62.90;;;;;;4933038;29;20507;-74
2022/08/24 09:15:57;;;;;;;4.43;4.10;;;26.20;62.90;;;;;;4915794;29;20433;-74
2022/08/24 09:18:30;;;;;;;4.60;4.30;;;26.20;62.90;;;;;;4927869;29;21070;-74
2022/08/24 09:21:14;;;;;;;4.30;4.00;;;26.30;63.00;;;;;;4906729;29;20478;-74
2022/08/24 09:23:46;;;;;;;4.33;3.93;;;26.30;62.90;;;;;;4933204;29;20496;-74
2022/08/24 09:26:30;;;;;;;4.97;4.57;;;26.30;62.90;;;;;;4932012;29;20470;-74
2022/08/24 09:29:11;;;;;;;5.20;4.80;;;26.40;62.90;;;;;;4915647;29;20491;-74
2022/08/24 09:31:37;;;;;;;4.40;4.10;;;26.40;62.80;;;;;;4922689;29;20468;-74
2022/08/24 09:34:32;;;;;;;4.87;4.37;;;26.40;62.70;;;;;;4911321;29;20456;-74
2022/08/24 09:37:01;;;;;;;4.83;4.33;;;26.40;62.80;;;;;;4898672;29;20471;-74
2022/08/24 09:39:48;;;;;;;4.60;4.30;;;26.50;62.70;;;;;;4928113;29;20435;-74
2022/08/24 09:42:31;;;;;;;4.67;4.33;;;26.50;62.60;;;;;;4933245;29;20443;-74
2022/08/24 09:45:19;;;;;;;4.63;3.73;;;26.60;62.60;;;;;;4915913;29;20483;-74
2022/08/24 09:47:57;;;;;;;5.07;4.57;;;26.60;62.60;;;;;;4932618;29;20487;-74
2022/08/24 09:50:45;;;;;;;5.23;4.73;;;26.60;62.40;;;;;;4916697;29;20462;-73
2022/08/24 09:53:26;;;;;;;4.73;4.33;;;26.70;62.40;;;;;;4916381;29;20459;-75
2022/08/24 09:56:31;;;;;;;5.17;4.73;;;26.70;62.40;;;;;;4932567;29;20451;-74
2022/08/24 09:59:20;;;;;;;4.93;4.53;;;26.80;62.40;;;;;;4925259;29;20443;-74
2022/08/24 10:02:26;;;;;;;4.80;4.40;;;26.80;62.30;;;;;;4935885;29;20464;-74
2022/08/24 10:05:43;;;;;;;4.90;4.50;;;26.80;62.30;;;;;;4937207;29;20455;-73
2022/08/24 10:08:47;;;;;;;5.40;4.10;;;26.90;62.20;;;;;;4901901;29;20495;-75
2022/08/24 10:11:28;;;;;;;4.63;4.23;;;26.90;62.10;;;;;;4925996;29;20452;-78
2022/08/24 10:14:03;;;;;;;6.73;4.70;;;27.00;62.20;;;;;;4938010;29;20451;-78
2022/08/24 10:16:35;;;;;;;6.53;4.00;;;27.00;62.20;;;;;;4963007;29;20666;-78
2022/08/24 10:19:38;;;;;;;4.90;4.40;;;27.00;62.10;;;;;;4947734;29;20481;-78
2022/08/24 10:22:18;;;;;;;5.00;4.50;;;27.00;62.10;;;;;;4943370;29;20436;-78
2022/08/24 10:25:10;;;;;;;4.77;4.37;;;27.10;62.10;;;;;;4943426;29;20475;-79
2022/08/24 10:27:39;;;;;;;4.70;4.27;;;27.20;62.20;;;;;;4934788;29;20424;-78
2022/08/24 10:30:39;;;;;;;5.20;4.50;;;27.20;62.10;;;;;;4942849;29;20493;-78
2022/08/24 10:33:16;;;;;;;4.33;3.80;;;27.30;62.10;;;;;;4942823;29;20447;-78
2022/08/24 10:36:22;;;;;;;4.70;3.67;;;27.30;62.10;;;;;;4942696;29;20864;-78
2022/08/24 10:39:59;;;;;;;6.87;4.20;;;27.30;62.00;;;;;;4913028;29;20428;-78
2022/08/24 10:42:07;;;;;;;3.93;3.63;;;27.40;62.00;;;;;;4909166;29;20498;-78
2022/08/24 10:44:42;;;;;;;4.67;4.27;;;27.40;61.90;;;;;;4942064;29;20485;-78
2022/08/24 10:47:17;;;;;;;4.60;4.20;;;27.50;61.90;;;;;;4924850;29;20447;-78
2022/08/24 10:50:36;;;;;;;3.93;3.63;;;27.50;61.80;;;;;;4941019;29;20543;-78
2022/08/24 10:53:16;;;;;;;7.23;3.77;;;27.50;61.70;;;;;;4899866;29;20463;-78
2022/08/24 10:55:42;;;;;;;4.07;3.67;;;27.60;61.60;;;;;;4940378;29;20482;-78
2022/08/24 10:58:42;;;;;;;4.10;3.77;;;27.60;61.50;;;;;;4942705;29;20467;-78
2022/08/24 11:01:18;;;;;;;3.97;3.67;;;27.70;61.40;;;;;;4932811;29;20787;-78
2022/08/24 11:04:03;;;;;;;4.40;4.00;;;27.70;61.30;;;;;;4945528;29;20820;-79
2022/08/24 11:06:35;;;;;;;4.50;3.37;;;27.80;61.20;;;;;;4912161;29;20472;-78
2022/08/24 11:09:07;;;;;;;4.40;3.60;;;27.80;61.10;;;;;;4912371;29;20454;-78
2022/08/24 11:11:39;;;;;;;4.63;4.07;;;27.80;60.90;;;;;;4931539;29;20435;-78
2022/08/24 11:14:23;;;;;;;4.40;4.00;;;27.90;60.90;;;;;;4942305;29;20827;-78
2022/08/24 11:16:51;;;;;;;4.53;4.13;;;28.00;60.80;;;;;;4925094;29;20451;-78
2022/08/24 11:19:30;;;;;;;3.73;3.43;;;28.00;60.80;;;;;;4942793;29;20457;-78
2022/08/24 11:22:03;;;;;;;3.90;3.60;;;28.00;60.60;;;;;;4942230;29;20989;-78
2022/08/24 11:24:38;;;;;;;4.30;3.90;;;28.10;60.40;;;;;;4941930;29;20523;-78
2022/08/24 11:27:16;;;;;;;5.30;3.77;;;28.10;60.40;;;;;;4941012;29;20452;-78
2022/08/24 11:29:53;;;;;;;3.73;3.43;;;28.10;60.20;;;;;;4938169;29;20439;-78
2022/08/24 11:32:38;;;;;;;4.23;3.83;;;28.20;60.20;;;;;;4935665;29;20470;-77
2022/08/24 11:35:09;;;;;;;4.03;3.63;;;28.20;60.20;;;;;;4918692;29;20439;-76
2022/08/24 11:37:37;;;;;;;4.30;4.00;;;28.20;60.10;;;;;;4938481;29;20944;-77
2022/08/24 11:40:06;;;;;;;3.87;3.50;;;28.30;60.10;;;;;;4914741;29;20438;-74
2022/08/24 11:43:04;;;;;;;3.97;3.67;;;28.30;60.00;;;;;;4934696;29;20471;-76
2022/08/24 11:45:30;;;;;;;4.50;4.10;;;28.40;60.10;;;;;;4883094;29;20492;-77
2022/08/24 11:48:26;;;;;;;3.83;3.47;;;28.40;60.00;;;;;;4906537;29;20875;-76
2022/08/24 11:51:22;;;;;;;3.73;3.43;;;28.40;60.00;;;;;;4918144;29;20464;-76
2022/08/24 11:54:08;;;;;;;4.23;3.47;;;28.50;59.90;;;;;;4933617;29;20495;-76
2022/08/24 11:57:07;;;;;;;4.07;3.77;;;28.50;59.60;;;;;;4932236;29;20476;-77
2022/08/24 11:59:47;;;;;;;4.00;3.50;;;28.60;59.40;;;;;;4931404;29;20432;-72
2022/08/24 12:02:45;;;;;;;3.93;3.60;;;28.60;59.20;;;;;;4933547;29;20451;-73
2022/08/24 12:05:36;;;;;;;3.83;3.40;;;28.70;59.10;;;;;;4918101;29;20809;-73
2022/08/24 12:08:24;;;;;;;3.77;3.47;;;28.70;59.00;;;;;;4918422;29;20845;-74
2022/08/24 12:10:56;;;;;;;4.30;4.00;;;28.70;59.00;;;;;;4934265;29;20802;-73
2022/08/24 12:13:36;;;;;;;4.07;3.67;;;28.80;59.00;;;;;;4918105;29;20975;-74
2022/08/24 12:16:09;;;;;;;4.40;3.50;;;28.80;59.00;;;;;;4933871;29;20444;-73
2022/08/24 12:18:54;;;;;;;3.80;3.47;;;28.80;58.90;;;;;;4918228;29;20420;-71
2022/08/24 12:21:36;;;;;;;4.53;3.50;;;28.90;58.90;;;;;;4917388;29;21028;-74
2022/08/24 12:24:09;;;;;;;3.30;3.00;;;28.90;58.80;;;;;;4933556;29;20461;-75
2022/08/24 12:26:37;;;;;;;4.60;3.43;;;28.90;58.80;;;;;;4932505;29;20553;-75
2022/08/24 12:29:28;;;;;;;3.70;3.40;;;28.90;58.70;;;;;;4931859;29;20432;-76
2022/08/24 12:32:04;;;;;;;3.50;3.20;;;29.00;58.70;;;;;;4916118;29;20813;-75
2022/08/24 12:34:39;;;;;;;3.87;3.13;;;29.10;58.80;;;;;;4917334;29;20445;-76
2022/08/24 12:37:14;;;;;;;3.50;3.30;;;29.10;58.80;;;;;;4919311;29;20863;-76
2022/08/24 12:40:17;;;;;;;4.73;4.20;;;29.10;58.80;;;;;;4936113;29;20898;-76
2022/08/24 12:42:55;;;;;;;3.50;3.20;;;29.10;58.60;;;;;;4918049;29;20436;-75
2022/08/24 12:45:26;;;;;;;4.50;3.80;;;29.20;58.60;;;;;;4900173;29;20551;-76
2022/08/24 12:48:35;;;;;;;3.50;3.17;;;29.20;58.60;;;;;;4904799;29;20428;-76
2022/08/24 12:51:16;;;;;;;3.30;3.00;;;29.20;58.50;;;;;;4908190;29;20436;-76
2022/08/24 12:54:20;;;;;;;6.40;3.90;;;29.30;58.30;;;;;;4918895;29;20456;-76
2022/08/24 12:56:55;;;;;;;3.97;3.57;;;29.30;58.00;;;;;;4935924;29;21021;-75
2022/08/24 12:59:35;;;;;;;3.60;3.30;;;29.40;57.90;;;;;;4919128;29;20504;-76
2022/08/24 13:02:07;;;;;;;3.60;3.10;;;29.40;57.70;;;;;;4918829;29;20400;-76
2022/08/24 13:04:41;;;;;;;5.17;3.10;;;29.40;57.60;;;;;;4918762;29;20466;-76
2022/08/24 13:07:30;;;;;;;4.17;3.77;;;29.50;57.80;;;;;;4935312;29;20436;-74
2022/08/24 13:09:59;;;;;;;3.40;3.10;;;29.50;57.60;;;;;;4930407;29;20432;-76
2022/08/24 13:15:30;;;;;;;3.80;3.40;;;29.60;57.40;;;;;;4931719;29;20443;-76
2022/08/24 13:18:08;;;;;;;3.73;3.43;;;29.60;57.40;;;;;;4902515;29;20447;-76
2022/08/24 13:20:37;;;;;;;3.50;3.20;;;29.70;57.40;;;;;;4918056;29;20511;-76
2022/08/24 13:23:15;;;;;;;3.87;3.57;;;29.70;57.40;;;;;;4935041;29;20554;-76
2022/08/24 13:25:51;;;;;;;3.57;3.27;;;29.70;57.30;;;;;;4932790;29;20484;-75
2022/08/24 13:28:19;;;;;;;4.60;3.63;;;29.80;57.20;;;;;;4933235;29;20522;-73
2022/08/24 13:31:04;;;;;;;3.97;3.57;;;29.80;57.30;;;;;;4933732;29;20524;-73
2022/08/24 13:33:33;;;;;;;3.50;3.20;;;29.90;57.40;;;;;;4918875;29;20447;-73
2022/08/24 13:36:27;;;;;;;3.90;3.40;;;29.90;57.40;;;;;;4920537;29;20820;-73
2022/08/24 13:39:18;;;;;;;3.67;3.27;;;29.90;57.30;;;;;;4929950;29;20861;-73